createdAt,value
2022-09-16T00:01:47.035Z,73.80
2022-09-16T00:04:15.657Z,73.63
2022-09-16T00:06:44.122Z,73.47
2022-09-16T00:09:12.596Z,73.27
2022-09-16T00:11:42.592Z,73.50
2022-09-16T00:14:11.642Z,73.62
2022-09-16T00:16:40.190Z,73.53
2022-09-16T00:19:10.078Z,73.70
2022-09-16T00:21:38.519Z,73.24
2022-09-16T00:24:07.639Z,73.52
2022-09-16T00:26:36.257Z,73.72
2022-09-16T00:29:06.267Z,73.73
2022-09-16T00:31:34.823Z,74.12
2022-09-16T00:34:03.640Z,73.96
2022-09-16T00:36:32.212Z,73.81
2022-09-16T00:39:00.685Z,73.75
2022-09-16T00:41:33.296Z,73.67
2022-09-16T00:44:04.753Z,73.92
2022-09-16T00:46:40.439Z,73.85
2022-09-16T00:49:14.798Z,74.49
2022-09-16T00:51:43.833Z,74.12
2022-09-16T00:54:13.494Z,74.57
2022-09-16T00:56:46.025Z,74.73
2022-09-16T00:59:19.791Z,74.70
2022-09-16T01:01:50.932Z,74.68
2022-09-16T01:04:24.326Z,74.76
2022-09-16T01:06:52.941Z,74.89
2022-09-16T01:09:25.828Z,74.67
2022-09-16T01:11:54.502Z,74.96
2022-09-16T01:14:43.814Z,74.86
2022-09-16T01:17:22.947Z,75.10
2022-09-16T01:20:41.945Z,75.07
2022-09-16T01:23:37.802Z,74.89
2022-09-16T01:26:28.303Z,75.44
2022-09-16T01:29:21.569Z,75.30
2022-09-16T01:31:58.367Z,75.66
2022-09-16T01:34:33.653Z,76.03
2022-09-16T01:37:07.835Z,75.72
2022-09-16T01:39:45.492Z,75.95
2022-09-16T01:42:23.312Z,75.82
2022-09-16T01:45:00.751Z,76.25
2022-09-16T01:47:39.677Z,76.37
2022-09-16T01:50:18.883Z,76.50
2022-09-16T01:52:56.004Z,76.34
2022-09-16T01:55:27.761Z,76.82
2022-09-16T01:58:01.070Z,76.69
2022-09-16T02:00:31.616Z,77.22
2022-09-16T02:03:05.239Z,77.46
2022-09-16T02:05:38.701Z,77.26
2022-09-16T02:08:10.212Z,77.93
2022-09-16T02:10:42.885Z,77.42
2022-09-16T02:13:18.423Z,77.95
2022-09-16T02:15:51.524Z,78.19
2022-09-16T02:18:24.708Z,77.78
2022-09-16T02:20:56.806Z,77.61
2022-09-16T02:23:29.132Z,77.47
2022-09-16T02:26:00.350Z,77.25
2022-09-16T02:28:35.349Z,77.16
2022-09-16T02:31:08.341Z,77.21
2022-09-16T02:33:46.489Z,77.15
2022-09-16T02:36:18.903Z,76.50
2022-09-16T02:38:50.683Z,76.83
2022-09-16T02:41:19.204Z,77.11
2022-09-16T02:43:47.745Z,76.99
2022-09-16T02:46:24.090Z,77.08
2022-09-16T02:49:04.350Z,76.64
2022-09-16T02:51:41.594Z,76.93
2022-09-16T02:54:18.174Z,76.85
2022-09-16T02:56:46.718Z,76.69
2022-09-16T02:59:16.568Z,76.43
2022-09-16T03:01:47.200Z,76.76
2022-09-16T03:04:20.345Z,76.65
2022-09-16T03:06:49.368Z,76.55
2022-09-16T03:09:23.932Z,76.82
2022-09-16T03:12:22.697Z,76.41
2022-09-16T03:15:19.226Z,76.58
2022-09-16T03:18:18.482Z,76.61
2022-09-16T03:21:00.200Z,76.64
2022-09-16T03:23:44.787Z,77.15
2022-09-16T03:26:23.768Z,76.77
2022-09-16T03:29:05.727Z,76.82
2022-09-16T03:31:41.072Z,77.21
2022-09-16T03:34:16.540Z,77.55
2022-09-16T03:36:52.689Z,76.84
2022-09-16T03:39:22.768Z,77.27
2022-09-16T03:41:52.301Z,77.52
2022-09-16T03:44:20.634Z,77.71
2022-09-16T03:46:49.044Z,77.94
2022-09-16T03:49:17.550Z,77.63
2022-09-16T03:51:47.330Z,77.21
2022-09-16T03:54:15.717Z,76.83
2022-09-16T03:56:44.121Z,77.00
2022-09-16T03:59:12.515Z,76.82
2022-09-16T04:01:40.926Z,77.12
2022-09-16T04:04:09.384Z,77.11
2022-09-16T04:06:37.719Z,77.30
2022-09-16T04:09:08.489Z,76.53
2022-09-16T04:11:37.044Z,76.65
2022-09-16T04:14:05.769Z,76.65
2022-09-16T04:16:35.166Z,76.78
2022-09-16T04:19:03.839Z,76.97
2022-09-16T04:21:32.630Z,77.06
2022-09-16T04:24:01.297Z,76.97
2022-09-16T04:26:31.052Z,77.03
2022-09-16T04:28:59.979Z,77.14
2022-09-16T04:31:28.387Z,77.37
2022-09-16T04:33:57.213Z,77.40
2022-09-16T04:36:25.775Z,77.36
2022-09-16T04:38:54.298Z,77.43
2022-09-16T04:41:24.118Z,77.33
2022-09-16T04:43:56.146Z,77.57
2022-09-16T04:46:25.193Z,77.27
2022-09-16T04:48:54.800Z,77.86
2022-09-16T04:51:24.234Z,77.68
2022-09-16T04:53:52.706Z,77.76
2022-09-16T04:56:22.609Z,77.37
2022-09-16T04:58:54.196Z,77.57
2022-09-16T05:01:24.195Z,77.73
2022-09-16T05:03:54.801Z,77.34
2022-09-16T05:06:25.059Z,78.30
2022-09-16T05:08:55.029Z,77.99
2022-09-16T05:11:25.525Z,77.37
2022-09-16T05:13:55.790Z,78.02
2022-09-16T05:16:25.180Z,77.78
2022-09-16T05:18:56.298Z,77.78
2022-09-16T05:21:26.990Z,77.98
2022-09-16T05:23:57.846Z,78.02
2022-09-16T05:26:28.346Z,78.17
2022-09-16T05:29:01.700Z,78.47
2022-09-16T05:31:31.691Z,78.47
2022-09-16T05:34:02.065Z,78.02
2022-09-16T05:36:33.000Z,78.63
2022-09-16T05:39:22.254Z,78.29
2022-09-16T05:41:51.620Z,78.50
2022-09-16T05:44:21.440Z,78.32
2022-09-16T05:46:50.192Z,78.36
2022-09-16T05:49:21.149Z,78.93
2022-09-16T05:51:50.970Z,78.52
2022-09-16T05:54:19.982Z,78.82
2022-09-16T05:56:49.163Z,79.04
2022-09-16T05:59:18.659Z,79.35
2022-09-16T06:01:48.470Z,79.28
2022-09-16T06:04:17.397Z,79.21
2022-09-16T06:06:47.131Z,79.06
2022-09-16T06:09:17.718Z,79.92
2022-09-16T06:11:47.877Z,79.99
2022-09-16T06:14:17.039Z,80.11
2022-09-16T06:16:45.620Z,79.89
2022-09-16T06:19:17.328Z,79.71
2022-09-16T06:21:46.663Z,80.31
2022-09-16T06:24:17.178Z,79.94
2022-09-16T06:26:47.000Z,80.00
2022-09-16T06:29:16.041Z,80.01
2022-09-16T06:31:44.557Z,79.64
2022-09-16T06:34:18.667Z,79.65
2022-09-16T06:36:47.876Z,80.08
2022-09-16T06:39:17.987Z,79.68
2022-09-16T06:41:46.447Z,79.50
2022-09-16T06:44:15.011Z,79.74
2022-09-16T06:46:44.289Z,79.73
2022-09-16T06:49:13.279Z,79.72
2022-09-16T06:51:43.652Z,79.44
2022-09-16T06:54:13.087Z,79.88
2022-09-16T06:56:41.897Z,79.70
2022-09-16T06:59:11.517Z,79.97
2022-09-16T07:01:39.927Z,79.23
2022-09-16T07:04:13.346Z,79.65
2022-09-16T07:07:09.081Z,80.18
2022-09-16T07:09:32.611Z,79.24
2022-09-16T07:12:01.601Z,79.15
2022-09-16T07:14:32.660Z,79.71
2022-09-16T07:17:01.715Z,79.29
2022-09-16T07:19:30.497Z,78.73
2022-09-16T07:22:00.231Z,78.50
2022-09-16T07:24:28.525Z,78.73
2022-09-16T07:26:56.937Z,78.29
2022-09-16T07:29:25.298Z,78.39
2022-09-16T07:31:53.682Z,78.41
2022-09-16T07:34:22.276Z,77.57
2022-09-16T07:36:51.984Z,76.94
2022-09-16T07:39:22.506Z,76.53
2022-09-16T07:41:50.827Z,75.81
2022-09-16T07:44:21.677Z,76.03
2022-09-16T07:46:51.620Z,75.50
2022-09-16T07:49:20.624Z,75.63
2022-09-16T07:51:49.704Z,75.69
2022-09-16T07:54:20.068Z,75.23
2022-09-16T07:56:49.950Z,74.45
2022-09-16T07:59:20.253Z,73.72
2022-09-16T08:01:50.574Z,72.02
2022-09-16T08:04:20.516Z,70.90
2022-09-16T08:06:49.102Z,69.65
2022-09-16T08:12:10.872Z,68.66
2022-09-16T08:14:39.729Z,68.25
2022-09-16T08:17:08.157Z,66.99
2022-09-16T08:19:38.538Z,66.97
2022-09-16T08:22:07.007Z,67.86
2022-09-16T08:24:35.853Z,64.38
2022-09-16T08:27:04.890Z,64.16
2022-09-16T08:29:34.655Z,62.74
2022-09-16T08:32:03.703Z,62.04
2022-09-16T09:26:34.713Z,65.59
2022-09-16T09:29:22.351Z,65.53
2022-09-16T09:32:01.290Z,66.02
2022-09-16T09:34:48.040Z,66.22
2022-09-16T09:37:29.083Z,66.50
2022-09-16T09:40:07.314Z,66.94
2022-09-16T09:42:41.025Z,66.46
2022-09-16T09:45:20.500Z,66.14
2022-09-16T09:47:52.506Z,65.55
2022-09-16T09:50:27.000Z,65.54
2022-09-16T09:53:04.372Z,63.78
2022-09-16T09:55:35.629Z,64.24
2022-09-16T09:58:18.553Z,64.53
2022-09-16T10:00:47.379Z,64.57
2022-09-16T10:03:18.640Z,64.16
2022-09-16T10:05:48.415Z,64.29
2022-09-16T10:08:30.193Z,63.67
2022-09-16T10:11:00.260Z,63.97
2022-09-16T10:13:31.957Z,63.80
2022-09-16T10:16:11.585Z,63.93
2022-09-16T10:18:40.856Z,63.95
2022-09-16T10:21:12.914Z,63.99
2022-09-16T10:23:41.517Z,63.95
2022-09-16T10:26:21.078Z,63.50
2022-09-16T10:28:59.655Z,64.18
2022-09-16T10:31:34.282Z,63.80
2022-09-16T10:34:06.221Z,64.04
2022-09-16T10:36:36.980Z,63.61
2022-09-16T10:39:06.776Z,62.85
2022-09-16T10:41:42.673Z,63.14
2022-09-16T10:44:18.897Z,63.12
2022-09-16T10:46:59.093Z,61.10
2022-09-16T10:49:34.972Z,62.13
2022-09-16T10:52:25.774Z,61.04
2022-09-16T10:54:55.004Z,61.88
2022-09-16T10:57:26.773Z,61.27
2022-09-16T11:00:02.323Z,59.25
2022-09-16T11:03:00.575Z,59.51
2022-09-16T11:05:36.973Z,59.49
2022-09-16T11:08:17.831Z,59.99
2022-09-16T11:10:54.204Z,60.24
2022-09-16T11:13:33.467Z,59.95
2022-09-16T11:16:20.529Z,60.21
2022-09-16T11:18:58.924Z,60.41
2022-09-16T11:21:57.114Z,60.66
2022-09-16T11:24:32.375Z,60.85
2022-09-16T11:27:11.549Z,61.11
2022-09-16T11:29:59.131Z,61.15
2022-09-16T11:32:48.184Z,61.52
2022-09-16T11:35:42.429Z,61.31
2022-09-16T11:38:19.824Z,61.28
2022-09-16T11:40:53.492Z,60.80
2022-09-16T11:43:43.752Z,60.46
2022-09-16T11:46:20.641Z,60.73
2022-09-16T11:48:56.332Z,61.12
2022-09-16T11:51:42.148Z,61.19
2022-09-16T11:54:27.419Z,61.75
2022-09-16T11:56:59.689Z,62.60
2022-09-16T11:59:35.692Z,63.33
2022-09-16T12:02:14.369Z,63.41
2022-09-16T12:04:50.541Z,63.87
2022-09-16T12:07:25.970Z,63.82
2022-09-16T12:09:59.001Z,65.22
2022-09-16T12:12:33.846Z,65.72
2022-09-16T12:15:07.604Z,65.50
2022-09-16T12:17:40.916Z,65.79
2022-09-16T12:20:18.890Z,66.01
2022-09-16T12:22:57.328Z,66.06
2022-09-16T12:25:29.877Z,67.11
2022-09-16T12:28:04.054Z,67.13
2022-09-16T12:30:38.432Z,66.97
2022-09-16T12:33:10.289Z,67.00
2022-09-16T12:35:43.065Z,67.87
2022-09-16T12:38:16.836Z,68.15
2022-09-16T12:41:01.830Z,67.85
2022-09-16T12:44:17.039Z,68.84
2022-09-16T12:47:06.916Z,69.50
2022-09-16T12:49:54.068Z,70.42
2022-09-16T12:52:41.501Z,70.09
2022-09-16T12:55:40.156Z,70.74
2022-09-16T12:58:38.912Z,70.14
2022-09-16T13:01:18.712Z,70.10
2022-09-16T13:03:53.944Z,71.23
2022-09-16T13:06:28.055Z,70.25
2022-09-16T13:08:59.212Z,70.43
2022-09-16T13:14:24.952Z,70.10
2022-09-16T13:16:56.326Z,71.48
2022-09-16T13:19:35.618Z,71.07
2022-09-16T13:22:12.782Z,72.23
2022-09-16T13:24:47.173Z,71.50
2022-09-16T13:27:31.985Z,70.84
2022-09-16T13:30:27.131Z,71.18
2022-09-16T13:33:26.530Z,71.49
2022-09-16T13:36:17.463Z,71.23
2022-09-16T13:38:49.838Z,71.88
2022-09-16T13:41:34.127Z,70.45
2022-09-16T13:44:03.907Z,70.97
2022-09-16T13:46:38.509Z,70.74
2022-09-16T13:49:28.007Z,71.12
2022-09-16T13:51:56.661Z,71.15
2022-09-16T13:54:43.184Z,71.87
2022-09-16T13:57:37.395Z,71.89
2022-09-16T14:00:13.240Z,72.36
2022-09-16T14:02:56.456Z,72.88
2022-09-16T14:05:46.903Z,73.74
2022-09-16T14:08:26.241Z,74.72
2022-09-16T14:11:01.695Z,75.32
2022-09-16T14:13:39.597Z,74.83
2022-09-16T14:16:16.442Z,74.33
2022-09-16T14:18:53.850Z,74.70
2022-09-16T14:21:24.257Z,75.03
2022-09-16T14:26:26.331Z,75.77
2022-09-16T14:29:06.200Z,75.57
2022-09-16T14:31:35.342Z,75.77
2022-09-16T14:34:09.151Z,76.11
2022-09-16T14:36:40.619Z,75.38
2022-09-16T14:39:13.971Z,75.72
2022-09-16T14:41:47.199Z,75.26
2022-09-16T14:44:26.232Z,75.83
2022-09-16T14:47:07.554Z,75.89
2022-09-16T14:49:39.580Z,75.58
2022-09-16T14:52:20.223Z,76.04
2022-09-16T14:54:49.339Z,76.13
2022-09-16T14:57:22.864Z,76.23
2022-09-16T14:59:55.860Z,75.95
2022-09-16T15:02:29.708Z,76.47
2022-09-16T15:05:01.733Z,78.37
2022-09-16T15:07:35.822Z,77.92
2022-09-16T15:10:07.890Z,78.20
2022-09-16T15:12:57.688Z,77.99
2022-09-16T15:15:30.888Z,79.52
2022-09-16T15:18:02.693Z,79.62
2022-09-16T15:20:35.019Z,78.86
2022-09-16T15:23:04.052Z,79.95
2022-09-16T15:25:36.126Z,80.28
2022-09-16T15:28:08.242Z,80.99
2022-09-16T15:30:47.292Z,81.46
2022-09-16T15:33:34.539Z,80.94
2022-09-16T15:36:04.360Z,82.12
2022-09-16T15:38:33.141Z,81.89
2022-09-16T15:41:04.113Z,83.10
2022-09-16T15:43:39.321Z,82.29
2022-09-16T15:46:18.357Z,82.62
2022-09-16T15:48:49.900Z,82.46
2022-09-16T15:51:29.371Z,82.60
2022-09-16T15:54:03.156Z,83.38
2022-09-16T15:56:35.788Z,83.35
2022-09-16T15:59:08.221Z,83.20
2022-09-16T16:01:43.934Z,83.39
2022-09-16T16:04:14.771Z,83.85
2022-09-16T16:06:49.876Z,83.93
2022-09-16T16:09:33.654Z,85.04
2022-09-16T16:12:03.718Z,85.76
2022-09-16T16:14:34.416Z,86.08
2022-09-16T16:17:14.966Z,85.19
2022-09-16T16:19:44.624Z,85.99
2022-09-16T16:22:14.033Z,85.84
2022-09-16T16:24:42.878Z,85.82
2022-09-16T16:27:11.551Z,85.89
2022-09-16T16:29:40.314Z,85.73
2022-09-16T16:32:11.846Z,85.81
2022-09-16T16:34:42.219Z,86.01
2022-09-16T16:37:27.906Z,86.41
2022-09-16T16:40:01.712Z,87.20
2022-09-16T16:42:31.946Z,85.96
2022-09-16T16:45:00.495Z,86.30
2022-09-16T16:47:30.264Z,86.84
2022-09-16T16:50:00.889Z,87.24
2022-09-16T16:52:31.412Z,87.69
2022-09-16T16:54:59.778Z,87.51
2022-09-16T16:57:28.196Z,87.08
2022-09-16T16:59:56.746Z,87.48
2022-09-16T17:02:25.814Z,87.06
2022-09-16T17:04:55.927Z,87.27
2022-09-16T17:07:27.025Z,86.72
2022-09-16T17:09:57.010Z,87.04
2022-09-16T17:12:25.601Z,87.47
2022-09-16T17:14:54.164Z,87.03
2022-09-16T17:17:24.446Z,86.50
2022-09-16T17:19:57.712Z,86.29
2022-09-16T17:22:26.195Z,85.66
2022-09-16T17:24:54.579Z,86.30
2022-09-16T17:27:24.866Z,86.36
2022-09-16T17:29:53.281Z,86.78
2022-09-16T17:32:21.647Z,86.29
2022-09-16T17:34:50.285Z,86.18
2022-09-16T17:37:20.176Z,85.28
2022-09-16T17:39:49.800Z,85.49
2022-09-16T17:42:18.393Z,86.10
2022-09-16T17:44:46.771Z,86.33
2022-09-16T17:47:15.458Z,85.97
2022-09-16T17:49:43.864Z,85.52
2022-09-16T17:52:12.266Z,86.09
2022-09-16T17:54:42.192Z,85.71
2022-09-16T17:57:10.603Z,85.18
2022-09-16T17:59:39.073Z,85.19
2022-09-16T18:02:09.474Z,84.79
2022-09-16T18:04:37.967Z,84.88
2022-09-16T18:07:06.385Z,84.43
2022-09-16T18:09:35.044Z,84.76
2022-09-16T18:12:05.087Z,84.56
2022-09-16T18:14:33.568Z,84.60
2022-09-16T18:17:02.289Z,84.46
2022-09-16T18:19:30.672Z,84.38
2022-09-16T18:21:59.139Z,83.75
2022-09-16T18:24:27.780Z,83.54
2022-09-16T18:26:56.224Z,83.21
2022-09-16T18:29:26.056Z,83.29
2022-09-16T18:31:55.753Z,82.84
2022-09-16T18:34:24.822Z,83.18
2022-09-16T18:36:53.192Z,82.26
2022-09-16T18:39:21.568Z,82.35
2022-09-16T18:41:51.192Z,82.40
2022-09-16T18:44:23.865Z,81.85
2022-09-16T18:46:54.407Z,81.85
2022-09-16T18:49:24.340Z,81.77
2022-09-16T18:51:53.993Z,81.90
2022-09-16T18:54:28.207Z,81.35
2022-09-16T18:56:59.059Z,81.84
2022-09-16T18:59:29.377Z,81.17
2022-09-16T19:02:02.808Z,81.32
2022-09-16T19:04:33.130Z,81.21
2022-09-16T19:07:08.055Z,80.82
2022-09-16T19:09:38.402Z,80.99
2022-09-16T19:12:07.730Z,80.57
2022-09-16T19:14:36.405Z,80.82
2022-09-16T19:17:06.822Z,80.59
2022-09-16T19:19:35.627Z,80.49
2022-09-16T19:22:06.165Z,80.64
2022-09-16T19:24:35.245Z,80.36
2022-09-16T19:27:03.745Z,80.29
2022-09-16T19:29:32.824Z,80.40
2022-09-16T19:32:01.431Z,80.53
2022-09-16T19:34:31.401Z,79.96
2022-09-16T19:36:59.922Z,80.50
2022-09-16T19:39:28.307Z,80.18
2022-09-16T19:41:57.131Z,80.30
2022-09-16T19:44:25.564Z,80.22
2022-09-16T19:46:53.996Z,80.31
2022-09-16T19:49:23.203Z,79.98
2022-09-16T19:51:54.079Z,80.28
2022-09-16T19:54:24.284Z,80.14
2022-09-16T19:56:53.282Z,79.91
2022-09-16T19:59:22.336Z,80.09
2022-09-16T20:01:51.186Z,79.86
2022-09-16T20:04:21.216Z,79.79
2022-09-16T20:06:51.059Z,80.00
2022-09-16T20:09:20.909Z,79.78
2022-09-16T20:11:50.081Z,79.70
2022-09-16T20:14:20.124Z,79.73
2022-09-16T20:16:49.601Z,79.42
2022-09-16T20:19:20.101Z,79.55
2022-09-16T20:21:49.236Z,79.73
2022-09-16T20:24:19.421Z,79.49
2022-09-16T20:26:50.237Z,79.59
2022-09-16T20:29:19.845Z,79.70
2022-09-16T20:31:49.806Z,79.64
2022-09-16T20:34:18.387Z,79.38
2022-09-16T20:36:47.530Z,79.31
2022-09-16T20:39:16.669Z,78.82
2022-09-16T20:41:45.845Z,79.01
2022-09-16T20:44:16.601Z,78.87
2022-09-16T20:46:46.365Z,78.96
2022-09-16T20:49:17.155Z,78.96
2022-09-16T20:51:46.374Z,78.58
2022-09-16T20:54:16.642Z,78.85
2022-09-16T20:56:46.863Z,78.60
2022-09-16T20:59:20.110Z,78.90
2022-09-16T21:01:50.115Z,78.37
2022-09-16T21:04:20.565Z,78.69
2022-09-16T21:06:49.085Z,78.71
2022-09-16T21:09:19.283Z,78.67
2022-09-16T21:11:48.133Z,78.84
2022-09-16T21:14:21.654Z,78.68
2022-09-16T21:16:51.725Z,78.30
2022-09-16T21:19:20.304Z,78.44
2022-09-16T21:21:48.762Z,78.33
2022-09-16T21:24:17.628Z,78.59
2022-09-16T21:26:46.823Z,78.42
2022-09-16T21:29:20.943Z,78.67
2022-09-16T21:31:50.286Z,78.40
2022-09-16T21:34:20.219Z,78.31
2022-09-16T21:36:49.783Z,78.28
2022-09-16T21:39:20.046Z,78.98
2022-09-16T21:41:49.280Z,78.58
2022-09-16T21:44:19.435Z,77.82
2022-09-16T21:46:48.495Z,78.62
2022-09-16T21:49:24.397Z,78.73
2022-09-16T21:51:54.241Z,79.18
2022-09-16T21:54:23.756Z,79.17
2022-09-16T21:56:53.192Z,79.11
2022-09-16T21:59:23.698Z,79.19
2022-09-16T22:01:53.188Z,78.72
2022-09-16T22:04:23.263Z,78.94
2022-09-16T22:06:52.894Z,78.93
2022-09-16T22:09:21.744Z,78.77
2022-09-16T22:11:50.504Z,79.68
2022-09-16T22:14:19.239Z,78.89
2022-09-16T22:16:49.133Z,79.81
2022-09-16T22:19:19.682Z,79.60
2022-09-16T22:21:49.557Z,79.98
2022-09-16T22:24:20.564Z,80.03
2022-09-16T22:26:50.341Z,80.11
2022-09-16T22:29:19.118Z,79.67
2022-09-16T22:31:49.492Z,78.99
2022-09-16T22:34:18.263Z,79.26
2022-09-16T22:36:46.750Z,78.96
2022-09-16T22:39:16.723Z,78.40
2022-09-16T22:41:45.426Z,78.54
2022-09-16T22:44:14.026Z,78.64
2022-09-16T22:46:44.457Z,78.42
2022-09-16T22:49:15.010Z,78.41
2022-09-16T22:51:43.817Z,77.69
2022-09-16T22:54:14.108Z,78.15
2022-09-16T22:56:43.981Z,77.58
2022-09-16T22:59:18.217Z,77.61
2022-09-16T23:01:47.308Z,77.12
2022-09-16T23:04:17.408Z,77.13
2022-09-16T23:06:45.983Z,77.33
2022-09-16T23:09:15.020Z,76.82
2022-09-16T23:11:44.107Z,76.93
2022-09-16T23:14:15.138Z,76.46
2022-09-16T23:16:43.485Z,76.54
2022-09-16T23:19:13.201Z,76.72
2022-09-16T23:21:43.334Z,76.88
2022-09-16T23:24:16.094Z,76.14
2022-09-16T23:26:45.126Z,76.26
2022-09-16T23:29:14.732Z,76.55
2022-09-16T23:31:45.237Z,76.65
2022-09-16T23:34:16.128Z,75.73
2022-09-16T23:36:46.668Z,76.08
2022-09-16T23:39:16.537Z,76.07
2022-09-16T23:41:45.425Z,75.35
2022-09-16T23:44:15.093Z,75.94
2022-09-16T23:46:43.792Z,75.49
2022-09-16T23:49:12.904Z,75.90
2022-09-16T23:51:41.220Z,75.26
2022-09-16T23:54:10.901Z,75.52
2022-09-16T23:56:39.281Z,75.62
2022-09-16T23:59:07.629Z,75.56
